Time,TemperatureF,DewpointF,PressureIn,WindDirection,WindDirectionDegrees,WindSpeedMPH,WindSpeedGustMPH,Humidity,HourlyPrecipIn,Conditions,Clouds,dailyrainin,SolarRadiationWatts/m^2,SoftwareType,DateUTC
2013-11-25 00:00:00,27.8,13.3,28.99,SSE,156,5.0,12.0,54,0.00,FEW,,0.00,0.0,WeatherDisplay:10.37,2013-11-25 06:00:00,
2013-11-25 00:10:00,27.8,13.3,28.99,SE,145,6.0,12.0,54,0.00,FEW,,0.00,0.0,WeatherDisplay:10.37,2013-11-25 06:10:00,
2013-11-25 00:20:00,27.9,13.8,28.99,SSE,153,3.0,10.0,55,0.00,FEW,,0.00,0.0,WeatherDisplay:10.37,2013-11-25 06:20:00,
2013-11-25 00:30:00,27.9,13.4,28.99,SSE,148,3.0,12.0,54,0.00,FEW,,0.00,0.0,WeatherDisplay:10.37,2013-11-25 06:30:00,
2013-11-25 00:40:00,27.9,13.8,28.98,SSE,155,3.0,12.0,55,0.00,FEW,,0.00,0.0,WeatherDisplay:10.37,2013-11-25 06:40:00,
2013-11-25 00:50:00,27.9,13.4,28.97,SSE,150,7.0,12.0,54,0.00,FEW,,0.00,0.0,WeatherDisplay:10.37,2013-11-25 06:50:00,
2013-11-25 01:00:00,27.9,13.4,28.98,SSE,150,3.0,12.0,54,0.00,FEW,,0.00,0.0,WeatherDisplay:10.37,2013-11-25 07:00:00,
2013-11-25 01:10:00,27.9,13.4,28.97,SSE,158,5.0,14.0,54,0.00,FEW,,0.00,0.0,WeatherDisplay:10.37,2013-11-25 07:10:00,
2013-11-25 01:20:00,28.1,14.0,28.97,SSE,158,6.0,12.0,55,0.00,FEW,,0.00,0.0,WeatherDisplay:10.37,2013-11-25 07:20:00,
2013-11-25 01:30:00,28.0,13.5,28.98,SSE,152,5.0,12.0,54,0.00,FEW,,0.00,0.0,WeatherDisplay:10.37,2013-11-25 07:30:00,
2013-11-25 01:40:00,28.1,13.6,28.97,SSE,150,5.0,10.0,54,0.00,FEW,,0.00,0.0,WeatherDisplay:10.37,2013-11-25 07:40:00,
2013-11-25 01:50:00,28.1,14.0,28.96,SSE,153,7.0,13.0,55,0.00,FEW,,0.00,0.0,WeatherDisplay:10.37,2013-11-25 07:50:00,
2013-11-25 02:00:00,28.1,14.4,28.96,SE,142,5.0,12.0,56,0.00,FEW,,0.00,0.0,WeatherDisplay:10.37,2013-11-25 08:00:00,
2013-11-25 02:10:00,28.1,14.0,28.96,SSE,159,5.0,13.0,55,0.00,FEW,,0.00,0.0,WeatherDisplay:10.37,2013-11-25 08:10:00,
2013-11-25 02:20:00,28.2,14.5,28.96,SE,145,5.0,11.0,56,0.00,FEW,,0.00,0.0,WeatherDisplay:10.37,2013-11-25 08:20:00,
2013-11-25 02:30:00,28.2,13.6,28.95,SSE,158,7.0,13.0,54,0.00,FEW,,0.00,0.0,WeatherDisplay:10.37,2013-11-25 08:30:00,
2013-11-25 02:40:00,28.2,14.1,28.94,SSE,159,5.0,12.0,55,0.00,FEW,,0.00,0.0,WeatherDisplay:10.37,2013-11-25 08:40:00,
2013-11-25 02:50:00,28.2,13.7,28.95,SSE,163,7.0,12.0,54,0.00,FEW,,0.00,0.0,WeatherDisplay:10.37,2013-11-25 08:50:00,
2013-11-25 03:00:00,28.3,14.1,28.94,SSE,150,5.0,10.0,55,0.00,FEW,,0.00,0.0,WeatherDisplay:10.37,2013-11-25 09:00:00,
2013-11-25 03:10:00,28.3,14.2,28.94,SSE,148,6.0,12.0,55,0.00,FEW,,0.00,0.0,WeatherDisplay:10.37,2013-11-25 09:10:00,
2013-11-25 03:20:00,28.2,13.7,28.93,SSE,154,7.0,13.0,54,0.00,FEW,,0.00,0.0,WeatherDisplay:10.37,2013-11-25 09:20:00,
2013-11-25 03:30:00,28.2,14.1,28.92,SSE,152,2.0,12.0,55,0.00,FEW,,0.00,0.0,WeatherDisplay:10.37,2013-11-25 09:30:00,
2013-11-25 03:40:00,28.2,14.1,28.93,SSE,157,5.0,12.0,55,0.00,FEW,,0.00,0.0,WeatherDisplay:10.37,2013-11-25 09:40:00,
2013-11-25 03:50:00,28.3,14.6,28.94,SSE,158,2.0,10.0,56,0.00,FEW,,0.00,0.0,WeatherDisplay:10.37,2013-11-25 09:50:00,
2013-11-25 04:00:00,28.3,14.6,28.94,SSE,153,5.0,12.0,56,0.00,FEW,,0.00,0.0,WeatherDisplay:10.37,2013-11-25 10:00:00,
2013-11-25 04:10:00,28.3,15.0,28.94,SSE,157,2.0,9.0,57,0.00,FEW,,0.00,0.0,WeatherDisplay:10.37,2013-11-25 10:10:00,
2013-11-25 04:20:00,28.3,15.4,28.93,SSE,155,6.0,12.0,58,0.00,FEW,,0.00,0.0,WeatherDisplay:10.37,2013-11-25 10:20:00,
2013-11-25 04:30:00,28.3,15.4,28.93,SSE,148,3.0,12.0,58,0.00,FEW,,0.00,0.0,WeatherDisplay:10.37,2013-11-25 10:30:00,
2013-11-25 04:40:00,28.3,15.8,28.94,SSE,158,3.0,12.0,59,0.00,FEW,,0.00,0.0,WeatherDisplay:10.37,2013-11-25 10:40:00,
2013-11-25 04:50:00,28.3,15.8,28.93,SSE,163,5.0,10.0,59,0.00,FEW,,0.00,0.0,WeatherDisplay:10.37,2013-11-25 10:50:00,
2013-11-25 05:00:00,28.3,16.2,28.92,SSE,159,3.0,12.0,60,0.00,FEW,,0.00,0.0,WeatherDisplay:10.37,2013-11-25 11:00:00,
2013-11-25 05:10:00,28.3,16.2,28.92,SSE,158,5.0,12.0,60,0.00,FEW,,0.00,0.0,WeatherDisplay:10.37,2013-11-25 11:10:00,
2013-11-25 05:20:00,28.3,16.2,28.92,SSE,155,7.0,14.0,60,0.00,FEW,,0.00,0.0,WeatherDisplay:10.37,2013-11-25 11:20:00,
2013-11-25 05:30:00,28.3,16.6,28.92,SSE,159,3.0,12.0,61,0.00,FEW,,0.00,0.0,WeatherDisplay:10.37,2013-11-25 11:30:00,
2013-11-25 05:40:00,28.3,16.6,28.91,SSE,147,8.0,13.0,61,0.00,FEW,,0.00,0.0,WeatherDisplay:10.37,2013-11-25 11:40:00,
2013-11-25 05:50:00,28.2,16.5,28.92,SSE,155,8.0,15.0,61,0.00,FEW,,0.00,0.0,WeatherDisplay:10.37,2013-11-25 11:50:00,
2013-11-25 06:00:00,28.2,16.5,28.90,SSE,149,6.0,12.0,61,0.00,FEW,,0.00,0.0,WeatherDisplay:10.37,2013-11-25 12:00:00,
2013-11-25 06:10:00,28.2,16.9,28.90,SSE,158,6.0,10.0,62,0.00,FEW,,0.00,0.0,WeatherDisplay:10.37,2013-11-25 12:10:00,
2013-11-25 06:20:00,28.3,16.9,28.91,SSE,158,6.0,13.0,62,0.00,FEW,,0.00,0.0,WeatherDisplay:10.37,2013-11-25 12:20:00,
2013-11-25 06:30:00,28.3,17.0,28.90,SSE,168,6.0,12.0,62,0.00,FEW,,0.00,0.0,WeatherDisplay:10.37,2013-11-25 12:30:00,
2013-11-25 06:40:00,28.3,16.9,28.91,SSE,166,7.0,13.0,62,0.00,FEW,,0.00,0.0,WeatherDisplay:10.37,2013-11-25 12:40:00,
2013-11-25 06:50:00,28.3,17.0,28.92,SSE,164,5.0,12.0,62,0.00,FEW,,0.00,0.0,WeatherDisplay:10.37,2013-11-25 12:50:00,
2013-11-25 07:00:00,28.3,16.6,28.92,SSE,155,5.0,12.0,61,0.00,FEW,,0.00,0.0,WeatherDisplay:10.37,2013-11-25 13:00:00,
2013-11-25 07:10:00,28.4,17.0,28.92,South,171,6.0,12.0,62,0.00,FEW,,0.00,0.0,WeatherDisplay:10.37,2013-11-25 13:10:00,
2013-11-25 07:20:00,28.4,16.7,28.92,SSE,167,7.0,12.0,61,0.00,FEW,,0.00,0.0,WeatherDisplay:10.37,2013-11-25 13:20:00,
2013-11-25 07:30:00,28.3,16.6,28.92,SSE,164,6.0,11.0,61,0.00,FEW,,0.00,0.0,WeatherDisplay:10.37,2013-11-25 13:30:00,
2013-11-25 07:40:00,28.4,17.0,28.92,SE,145,5.0,12.0,62,0.00,FEW,,0.00,0.0,WeatherDisplay:10.37,2013-11-25 13:40:00,
2013-11-25 07:50:00,28.5,17.1,28.92,SSE,162,2.0,12.0,62,0.00,FEW,,0.00,0.0,WeatherDisplay:10.37,2013-11-25 13:50:00,
2013-11-25 08:00:00,28.5,17.5,28.92,SSE,168,2.0,9.0,63,0.00,FEW,,0.00,0.0,WeatherDisplay:10.37,2013-11-25 14:00:00,
2013-11-25 08:10:00,28.5,17.9,28.92,SSE,147,5.0,13.0,64,0.00,FEW,,0.00,0.0,WeatherDisplay:10.37,2013-11-25 14:10:00,
2013-11-25 08:20:00,28.4,18.5,28.92,SSE,163,3.0,12.0,66,0.00,FEW,,0.00,0.0,WeatherDisplay:10.37,2013-11-25 14:20:00,
2013-11-25 08:30:00,28.1,18.9,28.93,South,170,6.0,9.0,68,0.00,FEW,,0.00,0.0,WeatherDisplay:10.37,2013-11-25 14:30:00,
2013-11-25 08:40:00,27.9,20.4,28.92,SSE,160,0.0,9.0,73,0.00,FEW,,0.00,0.0,WeatherDisplay:10.37,2013-11-25 14:40:00,
2013-11-25 08:50:00,27.3,21.3,28.90,SSE,151,6.0,12.0,78,0.00,FEW,,0.00,0.0,WeatherDisplay:10.37,2013-11-25 14:50:00,
2013-11-25 09:00:00,27.0,22.2,28.93,SSE,159,2.0,12.0,82,0.00,FEW,,0.00,0.0,WeatherDisplay:10.37,2013-11-25 15:00:00,
2013-11-25 09:10:00,27.0,22.8,28.93,SSE,165,3.0,9.0,84,0.00,FEW,,0.00,0.0,WeatherDisplay:10.37,2013-11-25 15:10:00,
2013-11-25 09:20:00,27.1,23.1,28.91,SSE,161,2.0,6.0,85,0.00,FEW,,0.00,0.0,WeatherDisplay:10.37,2013-11-25 15:20:00,
2013-11-25 09:30:00,27.1,23.2,28.91,SSE,150,1.0,7.0,85,0.00,FEW,,0.00,0.0,WeatherDisplay:10.37,2013-11-25 15:30:00,
2013-11-25 09:40:00,27.2,23.0,28.92,SSE,158,3.0,7.0,84,0.00,FEW,,0.00,0.0,WeatherDisplay:10.37,2013-11-25 15:40:00,
2013-11-25 09:50:00,27.3,23.1,28.93,South,172,2.0,7.0,84,0.00,FEW,,0.00,0.0,WeatherDisplay:10.37,2013-11-25 15:50:00,
2013-11-25 10:00:00,27.3,23.1,28.94,South,171,2.0,7.0,84,0.00,FEW,,0.00,0.0,WeatherDisplay:10.37,2013-11-25 16:00:00,
2013-11-25 10:10:00,27.4,23.2,28.93,South,171,3.0,5.0,84,0.00,FEW,,0.00,0.0,WeatherDisplay:10.37,2013-11-25 16:10:00,
2013-11-25 10:20:00,27.4,22.9,28.92,SSE,156,5.0,9.0,83,0.00,FEW,,0.00,0.0,WeatherDisplay:10.37,2013-11-25 16:20:00,
2013-11-25 10:30:00,27.4,22.9,28.93,SSE,158,3.0,9.0,83,0.00,FEW,,0.00,0.0,WeatherDisplay:10.37,2013-11-25 16:30:00,
2013-11-25 10:40:00,27.5,23.3,28.92,SSE,163,2.0,6.0,84,0.00,FEW,,0.00,0.0,WeatherDisplay:10.37,2013-11-25 16:40:00,
2013-11-25 10:50:00,27.6,23.1,28.92,SSE,162,3.0,8.0,83,0.00,FEW,,0.00,0.0,WeatherDisplay:10.37,2013-11-25 16:50:00,
2013-11-25 11:00:00,28.1,23.9,28.92,SSE,161,3.0,5.0,84,0.00,FEW,,0.00,0.0,WeatherDisplay:10.37,2013-11-25 17:00:00,
2013-11-25 11:10:00,28.7,24.2,28.91,SE,133,3.0,12.0,83,0.00,FEW,,0.00,0.0,WeatherDisplay:10.37,2013-11-25 17:10:00,
2013-11-25 11:20:00,29.0,24.2,28.90,South,176,2.0,7.0,82,0.00,FEW,,0.00,0.0,WeatherDisplay:10.37,2013-11-25 17:20:00,
2013-11-25 11:30:00,29.4,24.0,28.89,South,172,1.0,6.0,80,0.00,FEW,,0.00,0.0,WeatherDisplay:10.37,2013-11-25 17:30:00,
2013-11-25 11:40:00,29.5,24.7,28.88,SE,145,2.0,5.0,82,0.00,FEW,,0.00,0.0,WeatherDisplay:10.37,2013-11-25 17:40:00,
2013-11-25 11:50:00,29.9,24.8,28.88,SSE,154,1.0,6.0,81,0.00,FEW,,0.00,0.0,WeatherDisplay:10.37,2013-11-25 17:50:00,
2013-11-25 12:00:00,30.2,25.1,28.88,SSE,158,5.0,7.0,81,0.00,FEW,,0.00,0.0,WeatherDisplay:10.37,2013-11-25 18:00:00,
2013-11-25 12:10:00,30.3,25.2,28.87,SSE,150,3.0,9.0,81,0.00,FEW,,0.00,0.0,WeatherDisplay:10.37,2013-11-25 18:10:00,
2013-11-25 12:20:00,30.3,25.5,28.87,SSE,160,3.0,9.0,82,0.00,FEW,,0.00,0.0,WeatherDisplay:10.37,2013-11-25 18:20:00,
2013-11-25 12:30:00,30.7,25.9,28.87,South,175,3.0,6.0,82,0.01,RA,,0.01,0.0,WeatherDisplay:10.37,2013-11-25 18:30:00,
2013-11-25 12:40:00,31.2,26.3,28.86,South,185,3.0,7.0,82,0.01,FEW,,0.01,0.0,WeatherDisplay:10.37,2013-11-25 18:40:00,
2013-11-25 12:50:00,31.7,26.9,28.86,South,178,2.0,7.0,82,0.01,FEW,,0.01,0.0,WeatherDisplay:10.37,2013-11-25 18:50:00,
2013-11-25 13:00:00,32.2,27.0,28.85,SSE,168,5.0,9.0,81,0.01,FEW,,0.01,0.0,WeatherDisplay:10.37,2013-11-25 19:00:00,
2013-11-25 13:10:00,32.5,27.6,28.85,SSE,168,1.0,5.0,82,0.01,FEW,,0.01,0.0,WeatherDisplay:10.37,2013-11-25 19:10:00,
2013-11-25 13:20:00,32.7,27.8,28.84,South,172,3.0,6.0,82,0.01,FEW,,0.01,0.0,WeatherDisplay:10.37,2013-11-25 19:20:00,
2013-11-25 13:30:00,32.7,28.1,28.83,South,173,0.0,5.0,83,0.00,FEW,,0.01,0.0,WeatherDisplay:10.37,2013-11-25 19:30:00,
2013-11-25 13:40:00,33.0,27.8,28.83,South,190,0.0,6.0,81,0.00,FEW,,0.01,0.0,WeatherDisplay:10.37,2013-11-25 19:40:00,
2013-11-25 13:50:00,33.2,28.0,28.83,SSW,194,2.0,5.0,81,0.01,RA,,0.02,0.0,WeatherDisplay:10.37,2013-11-25 19:50:00,
2013-11-25 14:00:00,33.2,28.3,28.83,SSW,194,0.0,5.0,82,0.01,FEW,,0.02,0.0,WeatherDisplay:10.37,2013-11-25 20:00:00,
2013-11-25 14:10:00,33.4,28.5,28.83,SSW,194,0.0,4.0,82,0.01,FEW,,0.02,0.0,WeatherDisplay:10.37,2013-11-25 20:10:00,
2013-11-25 14:20:00,33.5,28.6,28.83,SSW,193,0.0,5.0,82,0.01,FEW,,0.02,0.0,WeatherDisplay:10.37,2013-11-25 20:20:00,
2013-11-25 14:30:00,33.5,28.6,28.82,SSW,193,0.0,4.0,82,0.01,FEW,,0.02,0.0,WeatherDisplay:10.37,2013-11-25 20:30:00,
2013-11-25 14:40:00,33.5,28.6,28.82,SSW,193,0.0,0.0,82,0.01,FEW,,0.02,0.0,WeatherDisplay:10.37,2013-11-25 20:40:00,
2013-11-25 14:50:00,33.7,28.8,28.81,WSW,254,0.0,5.0,82,0.00,FEW,,0.02,0.0,WeatherDisplay:10.37,2013-11-25 20:50:00,
2013-11-25 15:00:00,34.0,29.1,28.82,WNW,296,0.0,1.0,82,0.00,FEW,,0.02,0.0,WeatherDisplay:10.37,2013-11-25 21:00:00,
2013-11-25 15:10:00,34.1,28.9,28.82,SE,126,0.0,0.0,81,0.00,FEW,,0.02,0.0,WeatherDisplay:10.37,2013-11-25 21:10:00,
2013-11-25 15:20:00,34.1,28.9,28.83,SE,126,1.0,4.0,81,0.00,FEW,,0.02,0.0,WeatherDisplay:10.37,2013-11-25 21:20:00,
2013-11-25 15:30:00,34.0,29.1,28.84,SE,126,0.0,4.0,82,0.00,FEW,,0.02,0.0,WeatherDisplay:10.37,2013-11-25 21:30:00,
2013-11-25 15:40:00,34.1,29.2,28.83,SE,140,0.0,1.0,82,0.00,FEW,,0.02,0.0,WeatherDisplay:10.37,2013-11-25 21:40:00,
2013-11-25 15:50:00,34.1,28.9,28.83,SE,145,0.0,0.0,81,0.00,FEW,,0.02,0.0,WeatherDisplay:10.37,2013-11-25 21:50:00,
2013-11-25 16:00:00,34.1,29.2,28.83,SE,145,0.0,0.0,82,0.00,FEW,,0.02,0.0,WeatherDisplay:10.37,2013-11-25 22:00:00,
2013-11-25 16:10:00,34.2,29.3,28.83,WNW,291,0.0,3.0,82,0.00,FEW,,0.02,0.0,WeatherDisplay:10.37,2013-11-25 22:10:00,
2013-11-25 16:20:00,34.2,29.3,28.83,NW,306,0.0,1.0,82,0.00,FEW,,0.02,0.0,WeatherDisplay:10.37,2013-11-25 22:20:00,
2013-11-25 16:30:00,34.2,29.6,28.84,SSW,203,0.0,0.0,83,0.00,FEW,,0.02,0.0,WeatherDisplay:10.37,2013-11-25 22:30:00,
2013-11-25 16:40:00,34.2,29.6,28.83,SSE,159,0.0,0.0,83,0.00,FEW,,0.02,0.0,WeatherDisplay:10.37,2013-11-25 22:40:00,
2013-11-25 16:50:00,34.2,29.6,28.83,SSE,159,0.0,1.0,83,0.00,FEW,,0.02,0.0,WeatherDisplay:10.37,2013-11-25 22:50:00,
2013-11-25 17:00:00,34.2,29.6,28.83,SSE,159,0.0,0.0,83,0.00,FEW,,0.02,0.0,WeatherDisplay:10.37,2013-11-25 23:00:00,
2013-11-25 17:10:00,34.1,29.5,28.83,SSE,159,0.0,0.0,83,0.00,FEW,,0.02,0.0,WeatherDisplay:10.37,2013-11-25 23:10:00,
2013-11-25 17:20:00,34.1,29.5,28.84,SSE,159,0.0,0.0,83,0.00,FEW,,0.02,0.0,WeatherDisplay:10.37,2013-11-25 23:20:00,
2013-11-25 17:30:00,34.1,29.8,28.84,SSE,159,0.0,0.0,84,0.00,FEW,,0.02,0.0,WeatherDisplay:10.37,2013-11-25 23:30:00,
2013-11-25 17:40:00,34.1,29.8,28.84,SSE,159,0.0,1.0,84,0.00,FEW,,0.02,0.0,WeatherDisplay:10.37,2013-11-25 23:40:00,
2013-11-25 17:50:00,34.0,30.0,28.84,SSE,159,0.0,0.0,85,0.00,FEW,,0.02,0.0,WeatherDisplay:10.37,2013-11-25 23:50:00,
2013-11-25 18:00:00,33.9,29.9,28.84,SSE,159,0.0,0.0,85,0.00,FEW,,0.02,0.0,WeatherDisplay:10.37,2013-11-26 00:00:00,
2013-11-25 18:10:00,34.0,29.9,28.83,SSE,159,0.0,0.0,85,0.00,FEW,,0.02,0.0,WeatherDisplay:10.37,2013-11-26 00:10:00,
2013-11-25 18:20:00,33.9,29.9,28.83,SSE,159,0.0,0.0,85,0.00,FEW,,0.02,0.0,WeatherDisplay:10.37,2013-11-26 00:20:00,
2013-11-25 18:30:00,33.9,29.9,28.83,SSE,159,0.0,0.0,85,0.00,FEW,,0.02,0.0,WeatherDisplay:10.37,2013-11-26 00:30:00,
2013-11-25 18:40:00,33.8,29.8,28.82,SSE,159,0.0,0.0,85,0.00,FEW,,0.02,0.0,WeatherDisplay:10.37,2013-11-26 00:40:00,
2013-11-25 18:50:00,33.8,29.8,28.81,SSE,159,0.0,0.0,85,0.00,FEW,,0.02,0.0,WeatherDisplay:10.37,2013-11-26 00:50:00,
2013-11-25 19:00:00,33.7,30.0,28.81,SSE,159,0.0,0.0,86,0.00,FEW,,0.02,0.0,WeatherDisplay:10.37,2013-11-26 01:00:00,
2013-11-25 19:10:00,33.6,29.9,28.81,SSE,159,0.0,0.0,86,0.00,FEW,,0.02,0.0,WeatherDisplay:10.37,2013-11-26 01:10:00,
2013-11-25 19:20:00,33.4,30.0,28.82,SSE,159,0.0,0.0,87,0.00,FEW,,0.02,0.0,WeatherDisplay:10.37,2013-11-26 01:20:00,
2013-11-25 19:30:00,33.3,29.9,28.82,SSE,159,0.0,0.0,87,0.00,FEW,,0.02,0.0,WeatherDisplay:10.37,2013-11-26 01:30:00,
2013-11-25 19:40:00,33.3,29.8,28.82,SSE,159,0.0,0.0,87,0.00,FEW,,0.02,0.0,WeatherDisplay:10.37,2013-11-26 01:40:00,
2013-11-25 19:50:00,33.2,29.8,28.82,SSE,159,0.0,0.0,87,0.00,FEW,,0.02,0.0,WeatherDisplay:10.37,2013-11-26 01:50:00,
2013-11-25 20:00:00,33.1,29.9,28.82,SSE,159,0.0,0.0,88,0.00,FEW,,0.02,0.0,WeatherDisplay:10.37,2013-11-26 02:00:00,
2013-11-25 20:10:00,33.1,29.9,28.82,SSE,159,0.0,1.0,88,0.00,FEW,,0.02,0.0,WeatherDisplay:10.37,2013-11-26 02:10:00,
2013-11-25 20:20:00,33.0,29.8,28.83,SSE,159,0.0,0.0,88,0.00,FEW,,0.02,0.0,WeatherDisplay:10.37,2013-11-26 02:20:00,
2013-11-25 20:30:00,32.8,29.6,28.83,SSE,159,0.0,0.0,88,0.00,FEW,,0.02,0.0,WeatherDisplay:10.37,2013-11-26 02:30:00,
2013-11-25 20:40:00,32.6,29.7,28.83,SSE,159,0.0,0.0,89,0.00,FEW,,0.02,0.0,WeatherDisplay:10.37,2013-11-26 02:40:00,
2013-11-25 20:50:00,32.5,29.6,28.83,SSE,159,0.0,0.0,89,0.00,FEW,,0.02,0.0,WeatherDisplay:10.37,2013-11-26 02:50:00,
2013-11-25 21:00:00,32.5,29.6,28.82,SSE,159,0.0,0.0,89,0.00,FEW,,0.02,0.0,WeatherDisplay:10.37,2013-11-26 03:00:00,
2013-11-25 21:10:00,32.5,29.6,28.81,SSE,159,0.0,0.0,89,0.00,FEW,,0.02,0.0,WeatherDisplay:10.37,2013-11-26 03:10:00,
2013-11-25 21:20:00,32.3,29.4,28.81,SSE,159,0.0,0.0,89,0.00,FEW,,0.02,0.0,WeatherDisplay:10.37,2013-11-26 03:20:00,
2013-11-25 21:30:00,32.1,29.2,28.82,SSE,159,0.0,0.0,89,0.00,FEW,,0.02,0.0,WeatherDisplay:10.37,2013-11-26 03:30:00,
2013-11-25 21:40:00,31.9,29.0,28.83,SSE,159,0.0,0.0,89,0.00,FEW,,0.02,0.0,WeatherDisplay:10.37,2013-11-26 03:40:00,
2013-11-25 21:50:00,31.8,29.2,28.83,SSE,159,0.0,0.0,90,0.00,FEW,,0.02,0.0,WeatherDisplay:10.37,2013-11-26 03:50:00,
2013-11-25 22:00:00,31.9,29.3,28.82,SSE,159,0.0,0.0,90,0.00,FEW,,0.02,0.0,WeatherDisplay:10.37,2013-11-26 04:00:00,
2013-11-25 22:10:00,32.0,29.4,28.83,SSE,159,0.0,0.0,90,0.00,FEW,,0.02,0.0,WeatherDisplay:10.37,2013-11-26 04:10:00,
2013-11-25 22:20:00,32.2,29.6,28.82,SSE,159,0.0,0.0,90,0.00,FEW,,0.02,0.0,WeatherDisplay:10.37,2013-11-26 04:20:00,
2013-11-25 22:30:00,32.4,29.5,28.82,SSE,159,0.0,0.0,89,0.00,FEW,,0.02,0.0,WeatherDisplay:10.37,2013-11-26 04:30:00,
2013-11-25 22:40:00,32.7,29.5,28.82,SSE,159,0.0,0.0,88,0.00,FEW,,0.02,0.0,WeatherDisplay:10.37,2013-11-26 04:40:00,
2013-11-25 22:50:00,33.0,29.3,28.81,SSE,159,0.0,2.0,86,0.00,FEW,,0.02,0.0,WeatherDisplay:10.37,2013-11-26 04:50:00,
2013-11-25 23:00:00,33.2,29.5,28.81,SSE,159,0.0,3.0,86,0.00,FEW,,0.02,0.0,WeatherDisplay:10.37,2013-11-26 05:00:00,
2013-11-25 23:10:00,33.3,29.3,28.81,SSE,159,0.0,3.0,85,0.00,FEW,,0.02,0.0,WeatherDisplay:10.37,2013-11-26 05:10:00,
2013-11-25 23:20:00,33.5,28.9,28.81,SSE,159,0.0,1.0,83,0.00,FEW,,0.02,0.0,WeatherDisplay:10.37,2013-11-26 05:20:00,
2013-11-25 23:30:00,33.7,29.1,28.81,SSE,159,0.0,1.0,83,0.00,FEW,,0.02,0.0,WeatherDisplay:10.37,2013-11-26 05:30:00,
2013-11-25 23:40:00,33.8,28.9,28.80,SSE,157,1.0,5.0,82,0.00,FEW,,0.02,0.0,WeatherDisplay:10.37,2013-11-26 05:40:00,
2013-11-25 23:50:00,33.8,28.9,28.81,SSE,156,0.0,5.0,82,0.00,FEW,,0.02,0.0,WeatherDisplay:10.37,2013-11-26 05:50:00,